sensor_id;sensor_type;location;lat;lon;timestamp;pressure;altitude;pressure_sealevel;temperature;humidity
34983;BME280;21187;50.976;13.720;2023-04-20T00:02:49;98507.56;;;7.64;55.42
34983;BME280;21187;50.976;13.720;2023-04-20T00:07:51;98512.03;;;7.60;55.57
34983;BME280;21187;50.976;13.720;2023-04-20T00:12:55;98504.59;;;7.57;55.59
34983;BME280;21187;50.976;13.720;2023-04-20T00:17:56;98502.06;;;7.52;55.63
34983;BME280;21187;50.976;13.720;2023-04-20T00:22:58;98501.78;;;7.44;55.71
34983;BME280;21187;50.976;13.720;2023-04-20T00:28:00;98500.03;;;7.40;55.79
34983;BME280;21187;50.976;13.720;2023-04-20T00:33:02;98491.00;;;7.36;56.04
34983;BME280;21187;50.976;13.720;2023-04-20T00:38:04;98493.84;;;7.39;55.69
34983;BME280;21187;50.976;13.720;2023-04-20T00:43:12;98484.03;;;7.43;55.90
34983;BME280;21187;50.976;13.720;2023-04-20T00:48:14;98486.06;;;7.46;55.55
34983;BME280;21187;50.976;13.720;2023-04-20T00:53:17;98477.53;;;7.44;55.72
34983;BME280;21187;50.976;13.720;2023-04-20T00:58:20;98483.53;;;7.41;55.42
34983;BME280;21187;50.976;13.720;2023-04-20T01:03:22;98482.16;;;7.35;55.31
34983;BME280;21187;50.976;13.720;2023-04-20T01:08:25;98478.19;;;7.32;55.45
34983;BME280;21187;50.976;13.720;2023-04-20T01:13:28;98476.59;;;7.31;55.59
34983;BME280;21187;50.976;13.720;2023-04-20T01:18:45;98472.94;;;7.36;55.28
34983;BME280;21187;50.976;13.720;2023-04-20T01:23:48;98464.06;;;7.27;55.35
34983;BME280;21187;50.976;13.720;2023-04-20T01:28:50;98471.69;;;7.25;55.37
34983;BME280;21187;50.976;13.720;2023-04-20T01:33:53;98469.78;;;7.25;55.36
34983;BME280;21187;50.976;13.720;2023-04-20T01:38:55;98464.88;;;7.27;55.22
34983;BME280;21187;50.976;13.720;2023-04-20T01:43:56;98460.28;;;7.28;55.47
34983;BME280;21187;50.976;13.720;2023-04-20T01:48:58;98461.38;;;7.27;55.23
34983;BME280;21187;50.976;13.720;2023-04-20T01:54:01;98466.31;;;7.25;55.07
34983;BME280;21187;50.976;13.720;2023-04-20T01:59:03;98467.59;;;7.19;55.77
34983;BME280;21187;50.976;13.720;2023-04-20T02:04:04;98462.84;;;7.15;55.69
34983;BME280;21187;50.976;13.720;2023-04-20T02:09:06;98459.66;;;7.13;55.63
34983;BME280;21187;50.976;13.720;2023-04-20T02:14:09;98447.31;;;7.12;55.99
34983;BME280;21187;50.976;13.720;2023-04-20T02:19:11;98448.59;;;7.06;55.80
34983;BME280;21187;50.976;13.720;2023-04-20T02:24:13;98450.66;;;7.00;55.60
34983;BME280;21187;50.976;13.720;2023-04-20T02:29:15;98456.19;;;7.04;56.01
34983;BME280;21187;50.976;13.720;2023-04-20T02:34:17;98456.50;;;6.94;55.97
34983;BME280;21187;50.976;13.720;2023-04-20T02:39:19;98458.88;;;6.95;55.95
34983;BME280;21187;50.976;13.720;2023-04-20T02:44:21;98452.06;;;6.98;55.86
34983;BME280;21187;50.976;13.720;2023-04-20T02:49:23;98454.63;;;6.94;56.13
34983;BME280;21187;50.976;13.720;2023-04-20T02:54:25;98461.91;;;6.94;56.20
34983;BME280;21187;50.976;13.720;2023-04-20T02:59:27;98462.53;;;6.91;56.23
34983;BME280;21187;50.976;13.720;2023-04-20T03:04:52;98460.00;;;6.86;56.28
34983;BME280;21187;50.976;13.720;2023-04-20T03:09:55;98464.44;;;6.81;56.05
34983;BME280;21187;50.976;13.720;2023-04-20T03:15:17;98467.28;;;6.76;56.22
34983;BME280;21187;50.976;13.720;2023-04-20T03:20:40;98472.50;;;6.73;56.09
34983;BME280;21187;50.976;13.720;2023-04-20T03:25:42;98473.81;;;6.66;56.22
34983;BME280;21187;50.976;13.720;2023-04-20T03:30:51;98482.16;;;6.65;56.30
34983;BME280;21187;50.976;13.720;2023-04-20T03:35:54;98477.13;;;6.55;56.32
34983;BME280;21187;50.976;13.720;2023-04-20T03:40:56;98485.94;;;6.46;56.53
34983;BME280;21187;50.976;13.720;2023-04-20T03:45:58;98493.22;;;6.37;56.47
34983;BME280;21187;50.976;13.720;2023-04-20T03:51:00;98490.53;;;6.37;56.66
34983;BME280;21187;50.976;13.720;2023-04-20T03:56:02;98488.63;;;6.38;56.42
34983;BME280;21187;50.976;13.720;2023-04-20T04:01:05;98479.28;;;6.35;56.63
34983;BME280;21187;50.976;13.720;2023-04-20T04:06:14;98486.88;;;6.33;56.38
34983;BME280;21187;50.976;13.720;2023-04-20T04:11:16;98490.03;;;6.26;56.31
34983;BME280;21187;50.976;13.720;2023-04-20T04:16:19;98490.34;;;6.25;56.47
34983;BME280;21187;50.976;13.720;2023-04-20T04:21:22;98502.06;;;6.29;56.37
34983;BME280;21187;50.976;13.720;2023-04-20T04:26:30;98509.66;;;6.27;56.56
34983;BME280;21187;50.976;13.720;2023-04-20T04:31:33;98505.38;;;6.26;56.77
34983;BME280;21187;50.976;13.720;2023-04-20T04:36:42;98505.66;;;6.15;56.66
34983;BME280;21187;50.976;13.720;2023-04-20T04:41:47;98510.03;;;6.03;56.64
34983;BME280;21187;50.976;13.720;2023-04-20T04:47:09;98503.16;;;5.88;57.21
34983;BME280;21187;50.976;13.720;2023-04-20T04:52:12;98502.03;;;5.80;57.08
34983;BME280;21187;50.976;13.720;2023-04-20T04:57:14;98506.31;;;5.81;57.00
34983;BME280;21187;50.976;13.720;2023-04-20T05:02:16;98511.69;;;5.90;57.14
34983;BME280;21187;50.976;13.720;2023-04-20T05:07:18;98514.84;;;5.83;57.15
34983;BME280;21187;50.976;13.720;2023-04-20T05:12:20;98529.34;;;5.73;57.36
34983;BME280;21187;50.976;13.720;2023-04-20T05:17:22;98537.72;;;5.72;57.20
34983;BME280;21187;50.976;13.720;2023-04-20T05:22:24;98544.38;;;5.74;57.40
34983;BME280;21187;50.976;13.720;2023-04-20T05:27:26;98528.59;;;5.81;56.93
34983;BME280;21187;50.976;13.720;2023-04-20T05:32:28;98552.91;;;5.76;57.28
34983;BME280;21187;50.976;13.720;2023-04-20T05:37:30;98544.38;;;5.52;57.91
34983;BME280;21187;50.976;13.720;2023-04-20T05:42:32;98548.78;;;5.25;58.30
34983;BME280;21187;50.976;13.720;2023-04-20T05:47:34;98554.09;;;5.16;58.80
34983;BME280;21187;50.976;13.720;2023-04-20T05:52:36;98550.88;;;5.28;58.23
34983;BME280;21187;50.976;13.720;2023-04-20T05:57:38;98545.13;;;5.43;57.86
34983;BME280;21187;50.976;13.720;2023-04-20T06:02:44;98541.69;;;5.52;58.10
34983;BME280;21187;50.976;13.720;2023-04-20T06:07:46;98555.13;;;5.52;58.37
34983;BME280;21187;50.976;13.720;2023-04-20T06:12:48;98553.44;;;5.56;58.08
34983;BME280;21187;50.976;13.720;2023-04-20T06:17:49;98553.56;;;5.50;58.34
34983;BME280;21187;50.976;13.720;2023-04-20T06:22:52;98543.78;;;5.55;58.33
34983;BME280;21187;50.976;13.720;2023-04-20T06:27:54;98547.50;;;5.68;58.03
34983;BME280;21187;50.976;13.720;2023-04-20T06:32:55;98548.72;;;5.93;58.09
34983;BME280;21187;50.976;13.720;2023-04-20T06:37:58;98556.56;;;6.03;57.97
34983;BME280;21187;50.976;13.720;2023-04-20T06:43:00;98550.41;;;6.11;57.77
34983;BME280;21187;50.976;13.720;2023-04-20T06:48:02;98554.72;;;6.21;57.96
34983;BME280;21187;50.976;13.720;2023-04-20T06:53:04;98551.09;;;6.26;57.86
34983;BME280;21187;50.976;13.720;2023-04-20T06:58:06;98562.19;;;6.33;57.67
34983;BME280;21187;50.976;13.720;2023-04-20T07:03:08;98564.41;;;6.31;57.91
34983;BME280;21187;50.976;13.720;2023-04-20T07:08:10;98546.88;;;6.33;57.77
34983;BME280;21187;50.976;13.720;2023-04-20T07:13:11;98551.47;;;6.42;57.87
34983;BME280;21187;50.976;13.720;2023-04-20T07:18:13;98566.06;;;6.49;57.99
34983;BME280;21187;50.976;13.720;2023-04-20T07:23:15;98568.88;;;6.53;57.87
34983;BME280;21187;50.976;13.720;2023-04-20T07:28:17;98570.47;;;6.45;57.41
34983;BME280;21187;50.976;13.720;2023-04-20T07:33:19;98575.19;;;6.40;57.49
34983;BME280;21187;50.976;13.720;2023-04-20T07:38:21;98579.16;;;6.42;58.01
34983;BME280;21187;50.976;13.720;2023-04-20T07:43:23;98577.78;;;6.54;57.61
34983;BME280;21187;50.976;13.720;2023-04-20T07:48:25;98581.09;;;6.59;57.96
34983;BME280;21187;50.976;13.720;2023-04-20T07:53:30;98584.75;;;6.63;58.16
34983;BME280;21187;50.976;13.720;2023-04-20T07:58:31;98590.81;;;6.69;58.27
34983;BME280;21187;50.976;13.720;2023-04-20T08:03:33;98584.63;;;6.77;58.09
34983;BME280;21187;50.976;13.720;2023-04-20T08:08:36;98588.91;;;6.87;58.14
34983;BME280;21187;50.976;13.720;2023-04-20T08:13:38;98578.16;;;6.96;58.14
34983;BME280;21187;50.976;13.720;2023-04-20T08:18:40;98575.31;;;7.01;58.53
34983;BME280;21187;50.976;13.720;2023-04-20T08:23:43;98577.53;;;6.99;58.63
34983;BME280;21187;50.976;13.720;2023-04-20T08:28:45;98567.25;;;7.01;58.37
34983;BME280;21187;50.976;13.720;2023-04-20T08:33:47;98564.53;;;7.10;58.60
34983;BME280;21187;50.976;13.720;2023-04-20T08:39:17;98556.97;;;7.21;58.72
34983;BME280;21187;50.976;13.720;2023-04-20T08:44:15;98565.66;;;7.26;58.75
34983;BME280;21187;50.976;13.720;2023-04-20T08:49:18;98575.63;;;7.43;58.29
34983;BME280;21187;50.976;13.720;2023-04-20T08:54:20;98579.56;;;7.55;58.29
34983;BME280;21187;50.976;13.720;2023-04-20T08:59:25;98595.41;;;7.65;58.06
34983;BME280;21187;50.976;13.720;2023-04-20T09:04:27;98589.88;;;7.70;57.86
34983;BME280;21187;50.976;13.720;2023-04-20T09:09:30;98567.66;;;7.73;57.87
34983;BME280;21187;50.976;13.720;2023-04-20T09:14:45;98569.69;;;7.85;58.08
34983;BME280;21187;50.976;13.720;2023-04-20T09:19:52;98576.00;;;7.98;57.79
34983;BME280;21187;50.976;13.720;2023-04-20T09:24:54;98580.56;;;8.06;57.52
34983;BME280;21187;50.976;13.720;2023-04-20T09:29:58;98575.47;;;8.13;57.46
34983;BME280;21187;50.976;13.720;2023-04-20T09:35:01;98581.63;;;8.23;57.81
34983;BME280;21187;50.976;13.720;2023-04-20T09:40:03;98564.59;;;8.31;57.68
34983;BME280;21187;50.976;13.720;2023-04-20T09:45:07;98568.06;;;8.40;57.97
34983;BME280;21187;50.976;13.720;2023-04-20T09:50:10;98562.50;;;8.45;57.98
34983;BME280;21187;50.976;13.720;2023-04-20T09:55:30;98570.91;;;8.53;57.40
34983;BME280;21187;50.976;13.720;2023-04-20T10:00:32;98569.13;;;8.57;57.61
34983;BME280;21187;50.976;13.720;2023-04-20T10:05:35;98548.63;;;8.56;57.68
34983;BME280;21187;50.976;13.720;2023-04-20T10:10:48;98568.13;;;8.61;57.67
34983;BME280;21187;50.976;13.720;2023-04-20T10:15:50;98564.16;;;8.59;57.24
34983;BME280;21187;50.976;13.720;2023-04-20T10:21:04;98545.09;;;8.64;57.84
34983;BME280;21187;50.976;13.720;2023-04-20T10:26:06;98548.53;;;8.73;57.76
34983;BME280;21187;50.976;13.720;2023-04-20T10:31:08;98543.75;;;8.79;57.85
34983;BME280;21187;50.976;13.720;2023-04-20T10:36:25;98536.41;;;8.79;58.22
34983;BME280;21187;50.976;13.720;2023-04-20T10:41:28;98540.81;;;8.84;57.77
34983;BME280;21187;50.976;13.720;2023-04-20T10:46:29;98541.63;;;8.85;57.81
34983;BME280;21187;50.976;13.720;2023-04-20T10:51:32;98536.66;;;8.87;57.92
34983;BME280;21187;50.976;13.720;2023-04-20T10:57:00;98530.16;;;8.88;57.43
34983;BME280;21187;50.976;13.720;2023-04-20T11:02:07;98528.25;;;8.88;57.53
34983;BME280;21187;50.976;13.720;2023-04-20T11:07:11;98526.34;;;8.89;57.80
34983;BME280;21187;50.976;13.720;2023-04-20T11:12:15;98528.84;;;8.94;57.51
34983;BME280;21187;50.976;13.720;2023-04-20T11:17:18;98518.47;;;8.96;58.02
34983;BME280;21187;50.976;13.720;2023-04-20T11:22:22;98521.66;;;8.98;58.24
34983;BME280;21187;50.976;13.720;2023-04-20T11:27:24;98518.09;;;9.06;58.12
34983;BME280;21187;50.976;13.720;2023-04-20T11:32:25;98508.88;;;9.07;58.07
34983;BME280;21187;50.976;13.720;2023-04-20T11:37:28;98498.63;;;9.13;58.45
34983;BME280;21187;50.976;13.720;2023-04-20T11:42:30;98505.91;;;9.21;58.47
34983;BME280;21187;50.976;13.720;2023-04-20T11:47:32;98508.50;;;9.30;58.63
34983;BME280;21187;50.976;13.720;2023-04-20T11:52:34;98503.81;;;9.39;58.83
34983;BME280;21187;50.976;13.720;2023-04-20T11:57:36;98508.56;;;9.42;58.39
34983;BME280;21187;50.976;13.720;2023-04-20T12:02:38;98497.50;;;9.47;58.25
34983;BME280;21187;50.976;13.720;2023-04-20T12:07:40;98503.50;;;9.53;58.28
34983;BME280;21187;50.976;13.720;2023-04-20T12:12:42;98493.84;;;9.64;58.21
34983;BME280;21187;50.976;13.720;2023-04-20T12:17:44;98490.13;;;9.69;58.41
34983;BME280;21187;50.976;13.720;2023-04-20T12:22:46;98499.84;;;9.82;58.61
34983;BME280;21187;50.976;13.720;2023-04-20T12:27:47;98490.81;;;9.91;58.16
34983;BME280;21187;50.976;13.720;2023-04-20T12:32:50;98489.97;;;9.99;58.16
34983;BME280;21187;50.976;13.720;2023-04-20T12:37:52;98482.94;;;10.10;58.49
34983;BME280;21187;50.976;13.720;2023-04-20T12:42:54;98480.91;;;10.20;58.22
34983;BME280;21187;50.976;13.720;2023-04-20T12:47:56;98478.75;;;10.25;58.21
34983;BME280;21187;50.976;13.720;2023-04-20T12:53:01;98477.56;;;10.35;58.08
34983;BME280;21187;50.976;13.720;2023-04-20T12:58:02;98469.22;;;10.40;58.08
34983;BME280;21187;50.976;13.720;2023-04-20T13:03:04;98471.00;;;10.48;58.23
34983;BME280;21187;50.976;13.720;2023-04-20T13:08:06;98456.63;;;10.60;58.21
34983;BME280;21187;50.976;13.720;2023-04-20T13:13:11;98453.09;;;10.72;57.89
34983;BME280;21187;50.976;13.720;2023-04-20T13:18:13;98456.91;;;10.84;58.28
34983;BME280;21187;50.976;13.720;2023-04-20T13:23:15;98451.34;;;10.92;58.05
34983;BME280;21187;50.976;13.720;2023-04-20T13:28:18;98449.38;;;11.05;58.28
34983;BME280;21187;50.976;13.720;2023-04-20T13:33:19;98450.78;;;11.15;58.35
34983;BME280;21187;50.976;13.720;2023-04-20T13:38:21;98435.41;;;11.19;57.90
34983;BME280;21187;50.976;13.720;2023-04-20T13:43:24;98427.81;;;11.41;58.03
34983;BME280;21187;50.976;13.720;2023-04-20T13:48:26;98431.59;;;11.68;57.98
34983;BME280;21187;50.976;13.720;2023-04-20T13:53:27;98426.59;;;11.86;57.80
34983;BME280;21187;50.976;13.720;2023-04-20T13:58:29;98421.75;;;12.11;57.63
34983;BME280;21187;50.976;13.720;2023-04-20T14:03:31;98419.97;;;12.35;57.75
34983;BME280;21187;50.976;13.720;2023-04-20T14:08:33;98417.50;;;12.46;57.48
34983;BME280;21187;50.976;13.720;2023-04-20T14:13:36;98409.78;;;12.68;57.41
34983;BME280;21187;50.976;13.720;2023-04-20T14:18:39;98412.28;;;12.76;57.52
34983;BME280;21187;50.976;13.720;2023-04-20T14:23:41;98409.69;;;12.84;57.33
34983;BME280;21187;50.976;13.720;2023-04-20T14:28:43;98408.25;;;12.90;57.42
34983;BME280;21187;50.976;13.720;2023-04-20T14:33:46;98396.94;;;12.88;57.55
34983;BME280;21187;50.976;13.720;2023-04-20T14:38:48;98405.09;;;12.88;57.64
34983;BME280;21187;50.976;13.720;2023-04-20T14:43:50;98398.25;;;12.94;57.61
34983;BME280;21187;50.976;13.720;2023-04-20T14:48:51;98394.09;;;13.00;57.23
34983;BME280;21187;50.976;13.720;2023-04-20T14:53:53;98387.47;;;13.01;57.35
34983;BME280;21187;50.976;13.720;2023-04-20T14:58:56;98387.19;;;13.06;57.19
34983;BME280;21187;50.976;13.720;2023-04-20T15:04:00;98389.63;;;13.11;57.07
34983;BME280;21187;50.976;13.720;2023-04-20T15:09:02;98389.69;;;13.15;57.02
34983;BME280;21187;50.976;13.720;2023-04-20T15:14:04;98385.91;;;13.20;56.88
34983;BME280;21187;50.976;13.720;2023-04-20T15:19:06;98371.13;;;13.21;57.02
34983;BME280;21187;50.976;13.720;2023-04-20T15:24:08;98364.91;;;13.20;56.69
34983;BME280;21187;50.976;13.720;2023-04-20T15:29:09;98362.69;;;13.26;56.81
34983;BME280;21187;50.976;13.720;2023-04-20T15:34:11;98351.03;;;13.25;56.88
34983;BME280;21187;50.976;13.720;2023-04-20T15:39:16;98344.19;;;13.35;57.09
34983;BME280;21187;50.976;13.720;2023-04-20T15:44:17;98349.81;;;13.46;56.73
34983;BME280;21187;50.976;13.720;2023-04-20T15:49:20;98339.72;;;13.46;56.87
34983;BME280;21187;50.976;13.720;2023-04-20T15:54:22;98333.84;;;13.44;56.95
34983;BME280;21187;50.976;13.720;2023-04-20T15:59:24;98337.00;;;13.46;57.00
34983;BME280;21187;50.976;13.720;2023-04-20T16:04:26;98336.75;;;13.55;57.07
34983;BME280;21187;50.976;13.720;2023-04-20T16:09:28;98334.09;;;13.59;57.04
34983;BME280;21187;50.976;13.720;2023-04-20T16:14:30;98339.97;;;13.61;57.44
34983;BME280;21187;50.976;13.720;2023-04-20T16:19:32;98343.75;;;13.56;57.28
34983;BME280;21187;50.976;13.720;2023-04-20T16:24:35;98339.84;;;13.54;57.44
34983;BME280;21187;50.976;13.720;2023-04-20T16:29:36;98342.91;;;13.52;57.30
34983;BME280;21187;50.976;13.720;2023-04-20T16:34:39;98342.84;;;13.48;57.34
34983;BME280;21187;50.976;13.720;2023-04-20T16:39:42;98336.59;;;13.44;57.35
34983;BME280;21187;50.976;13.720;2023-04-20T16:44:44;98343.59;;;13.45;57.19
34983;BME280;21187;50.976;13.720;2023-04-20T16:49:46;98338.16;;;13.45;57.65
34983;BME280;21187;50.976;13.720;2023-04-20T16:54:48;98340.44;;;13.43;57.38
34983;BME280;21187;50.976;13.720;2023-04-20T16:59:50;98333.03;;;13.40;57.38
34983;BME280;21187;50.976;13.720;2023-04-20T17:04:52;98341.19;;;13.40;57.54
34983;BME280;21187;50.976;13.720;2023-04-20T17:09:55;98342.31;;;13.39;57.43
34983;BME280;21187;50.976;13.720;2023-04-20T17:14:56;98341.19;;;13.40;57.35
34983;BME280;21187;50.976;13.720;2023-04-20T17:19:58;98345.88;;;13.43;57.45
34983;BME280;21187;50.976;13.720;2023-04-20T17:25:00;98344.97;;;13.36;57.61
34983;BME280;21187;50.976;13.720;2023-04-20T17:30:03;98342.94;;;13.29;57.96
34983;BME280;21187;50.976;13.720;2023-04-20T17:35:06;98346.00;;;13.27;57.43
34983;BME280;21187;50.976;13.720;2023-04-20T17:40:08;98335.47;;;13.26;57.46
34983;BME280;21187;50.976;13.720;2023-04-20T17:45:10;98340.22;;;13.29;57.49
34983;BME280;21187;50.976;13.720;2023-04-20T17:50:12;98333.19;;;13.28;57.56
34983;BME280;21187;50.976;13.720;2023-04-20T17:55:16;98338.94;;;13.23;57.32
34983;BME280;21187;50.976;13.720;2023-04-20T18:00:18;98332.22;;;13.17;57.39
34983;BME280;21187;50.976;13.720;2023-04-20T18:05:21;98336.44;;;13.14;57.25
34983;BME280;21187;50.976;13.720;2023-04-20T18:10:22;98344.13;;;13.08;57.44
34983;BME280;21187;50.976;13.720;2023-04-20T18:15:24;98340.56;;;13.04;57.66
34983;BME280;21187;50.976;13.720;2023-04-20T18:20:26;98352.16;;;13.01;57.17
34983;BME280;21187;50.976;13.720;2023-04-20T18:25:30;98351.66;;;12.95;57.39
34983;BME280;21187;50.976;13.720;2023-04-20T18:30:32;98355.47;;;12.91;57.15
34983;BME280;21187;50.976;13.720;2023-04-20T18:35:34;98367.34;;;12.82;57.15
34983;BME280;21187;50.976;13.720;2023-04-20T18:40:36;98360.66;;;12.76;57.36
34983;BME280;21187;50.976;13.720;2023-04-20T18:45:38;98356.63;;;12.70;57.13
34983;BME280;21187;50.976;13.720;2023-04-20T18:50:40;98362.34;;;12.65;57.00
34983;BME280;21187;50.976;13.720;2023-04-20T18:55:42;98365.28;;;12.56;57.08
34983;BME280;21187;50.976;13.720;2023-04-20T19:00:43;98360.94;;;12.52;57.29
34983;BME280;21187;50.976;13.720;2023-04-20T19:05:46;98358.22;;;12.52;57.45
34983;BME280;21187;50.976;13.720;2023-04-20T19:10:48;98372.25;;;12.54;57.05
34983;BME280;21187;50.976;13.720;2023-04-20T19:15:53;98364.50;;;12.56;57.22
34983;BME280;21187;50.976;13.720;2023-04-20T19:20:55;98370.66;;;12.53;57.36
34983;BME280;21187;50.976;13.720;2023-04-20T19:25:57;98379.97;;;12.52;57.06
34983;BME280;21187;50.976;13.720;2023-04-20T19:30:59;98381.09;;;12.51;57.11
34983;BME280;21187;50.976;13.720;2023-04-20T19:36:01;98382.22;;;12.49;57.13
34983;BME280;21187;50.976;13.720;2023-04-20T19:41:04;98375.25;;;12.48;56.81
34983;BME280;21187;50.976;13.720;2023-04-20T19:46:06;98380.97;;;12.43;56.88
34983;BME280;21187;50.976;13.720;2023-04-20T19:51:10;98380.09;;;12.39;57.08
34983;BME280;21187;50.976;13.720;2023-04-20T19:56:12;98382.66;;;12.32;57.17
34983;BME280;21187;50.976;13.720;2023-04-20T20:01:14;98388.00;;;12.28;57.11
34983;BME280;21187;50.976;13.720;2023-04-20T20:06:16;98392.56;;;12.24;57.15
34983;BME280;21187;50.976;13.720;2023-04-20T20:11:18;98380.94;;;12.24;57.39
34983;BME280;21187;50.976;13.720;2023-04-20T20:16:22;98382.53;;;12.25;56.98
34983;BME280;21187;50.976;13.720;2023-04-20T20:21:24;98392.56;;;12.24;56.90
34983;BME280;21187;50.976;13.720;2023-04-20T20:26:26;98384.00;;;12.22;57.00
34983;BME280;21187;50.976;13.720;2023-04-20T20:31:28;98394.06;;;12.22;56.96
34983;BME280;21187;50.976;13.720;2023-04-20T20:36:30;98387.88;;;12.21;57.06
34983;BME280;21187;50.976;13.720;2023-04-20T20:41:32;98385.56;;;12.23;57.08
34983;BME280;21187;50.976;13.720;2023-04-20T20:46:38;98389.84;;;12.24;56.81
34983;BME280;21187;50.976;13.720;2023-04-20T20:51:40;98387.94;;;12.25;56.86
34983;BME280;21187;50.976;13.720;2023-04-20T20:56:43;98392.53;;;12.21;56.84
34983;BME280;21187;50.976;13.720;2023-04-20T21:01:45;98399.88;;;12.20;56.71
34983;BME280;21187;50.976;13.720;2023-04-20T21:06:47;98397.06;;;12.17;56.62
34983;BME280;21187;50.976;13.720;2023-04-20T21:11:49;98395.50;;;12.15;56.63
34983;BME280;21187;50.976;13.720;2023-04-20T21:16:51;98391.63;;;12.17;56.54
34983;BME280;21187;50.976;13.720;2023-04-20T21:21:53;98404.78;;;12.14;56.34
34983;BME280;21187;50.976;13.720;2023-04-20T21:26:54;98414.06;;;12.13;56.11
34983;BME280;21187;50.976;13.720;2023-04-20T21:31:57;98403.22;;;12.13;56.30
34983;BME280;21187;50.976;13.720;2023-04-20T21:36:58;98405.91;;;12.13;56.25
34983;BME280;21187;50.976;13.720;2023-04-20T21:42:04;98404.34;;;12.12;56.13
34983;BME280;21187;50.976;13.720;2023-04-20T21:47:06;98402.00;;;12.11;56.09
34983;BME280;21187;50.976;13.720;2023-04-20T21:52:08;98411.53;;;12.05;55.78
34983;BME280;21187;50.976;13.720;2023-04-20T21:57:10;98415.06;;;11.89;55.57
34983;BME280;21187;50.976;13.720;2023-04-20T22:02:12;98409.19;;;11.71;55.98
34983;BME280;21187;50.976;13.720;2023-04-20T22:07:14;98406.41;;;11.52;56.01
34983;BME280;21187;50.976;13.720;2023-04-20T22:12:18;98399.13;;;11.40;56.01
34983;BME280;21187;50.976;13.720;2023-04-20T22:17:37;98403.31;;;11.21;56.43
34983;BME280;21187;50.976;13.720;2023-04-20T22:22:39;98396.28;;;11.04;56.37
34983;BME280;21187;50.976;13.720;2023-04-20T22:27:41;98407.97;;;10.92;56.43
34983;BME280;21187;50.976;13.720;2023-04-20T22:32:43;98406.41;;;10.91;56.39
34983;BME280;21187;50.976;13.720;2023-04-20T22:37:45;98400.50;;;10.73;56.61
34983;BME280;21187;50.976;13.720;2023-04-20T22:42:47;98405.63;;;10.62;56.73
34983;BME280;21187;50.976;13.720;2023-04-20T22:47:49;98407.88;;;10.60;57.13
34983;BME280;21187;50.976;13.720;2023-04-20T22:52:51;98413.31;;;10.60;56.68
34983;BME280;21187;50.976;13.720;2023-04-20T22:57:52;98408.59;;;10.57;56.57
34983;BME280;21187;50.976;13.720;2023-04-20T23:02:54;98410.72;;;10.52;56.69
34983;BME280;21187;50.976;13.720;2023-04-20T23:07:56;98414.59;;;10.51;57.10
34983;BME280;21187;50.976;13.720;2023-04-20T23:13:00;98417.59;;;10.49;57.16
34983;BME280;21187;50.976;13.720;2023-04-20T23:18:02;98412.31;;;10.53;56.98
34983;BME280;21187;50.976;13.720;2023-04-20T23:23:06;98403.50;;;10.56;56.70
34983;BME280;21187;50.976;13.720;2023-04-20T23:28:08;98389.97;;;10.56;56.60
34983;BME280;21187;50.976;13.720;2023-04-20T23:33:10;98407.09;;;10.60;56.52
34983;BME280;21187;50.976;13.720;2023-04-20T23:38:12;98401.00;;;10.63;56.51
34983;BME280;21187;50.976;13.720;2023-04-20T23:43:13;98407.09;;;10.60;56.55
34983;BME280;21187;50.976;13.720;2023-04-20T23:48:15;98402.66;;;10.39;56.40
34983;BME280;21187;50.976;13.720;2023-04-20T23:53:17;98395.00;;;10.16;57.05
34983;BME280;21187;50.976;13.720;2023-04-20T23:58:24;98396.69;;;10.09;57.30
